Time;durP1;ratioP1;P1;durP2;ratioP2;P2;SDS_P1;SDS_P2;PMS_P1;PMS_P2;Temp;Humidity;BMP_temperature;BMP_pressure;BME280_temperature;BME280_humidity;BME280_pressure;Samples;Min_cycle;Max_cycle;Signal;HPM_P1;HPM_P2
2022/03/14 00:01:10;;;;;;;;;;;12.60;72.00;;;;;;4962566;28;20025;-51
2022/03/14 00:03:45;;;;;;;;;;;12.80;71.90;;;;;;4966571;28;19926;-49
2022/03/14 00:06:12;;;;;;;;;;;12.80;72.10;;;;;;4965590;28;20361;-48
2022/03/14 00:08:41;;;;;;;;;;;12.80;72.30;;;;;;4964867;28;20410;-48
2022/03/14 00:11:08;;;;;;;;;;;12.70;71.70;;;;;;4973892;28;20596;-49
2022/03/14 00:13:35;;;;;;;;;;;12.80;71.40;;;;;;4962398;28;19950;-48
2022/03/14 00:16:03;;;;;;;;;;;12.70;71.00;;;;;;4962290;28;20780;-50
2022/03/14 00:18:31;;;;;;;;;;;12.90;71.10;;;;;;4959345;28;19933;-50
2022/03/14 00:20:59;;;;;;;;;;;13.20;70.90;;;;;;4958788;28;19926;-51
2022/03/14 00:23:30;;;;;;;;;;;13.10;72.00;;;;;;4963476;28;20349;-51
2022/03/14 00:25:56;;;;;;;;;;;13.00;71.10;;;;;;4957624;28;19997;-51
2022/03/14 00:28:23;;;;;;;;;;;12.90;70.90;;;;;;4955752;28;19927;-51
2022/03/14 00:30:50;;;;;;;;;;;12.50;71.80;;;;;;4956369;28;19981;-50
2022/03/14 00:33:17;;;;;;;;;;;12.50;73.30;;;;;;4974631;28;19930;-51
2022/03/14 00:35:43;;;;;;;;;;;12.50;71.70;;;;;;4957654;28;19930;-48
2022/03/14 00:38:12;;;;;;;;;;;12.40;71.40;;;;;;4955293;29;20002;-48
2022/03/14 00:40:39;;;;;;;;;;;12.30;72.50;;;;;;4955411;29;19927;-49
2022/03/14 00:43:07;;;;;;;;;;;12.50;71.70;;;;;;4955224;29;19981;-49
2022/03/14 00:45:34;;;;;;;;;;;12.60;71.40;;;;;;4954450;29;19938;-48
2022/03/14 00:48:01;;;;;;;;;;;12.50;71.40;;;;;;4955228;29;19926;-48
2022/03/14 00:50:28;;;;;;;;;;;12.60;71.30;;;;;;4953863;28;20407;-48
2022/03/14 00:52:54;;;;;;;;;;;12.70;70.80;;;;;;4953234;28;19934;-48
2022/03/14 00:55:23;;;;;;;;;;;12.60;70.30;;;;;;4954145;29;19926;-48
2022/03/14 00:57:49;;;;;;;;;;;12.60;70.40;;;;;;4954375;29;19990;-48
2022/03/14 01:00:16;;;;;;;;;;;12.80;71.10;;;;;;4954913;29;19926;-48
2022/03/14 01:02:43;;;;;;;;;;;12.80;71.50;;;;;;4954593;29;20374;-49
2022/03/14 01:05:10;;;;;;;;;;;12.70;71.00;;;;;;4954166;28;19973;-49
2022/03/14 01:07:36;;;;;;;;;;;12.70;72.30;;;;;;4954290;29;19930;-49
2022/03/14 01:10:04;;;;;;;;;;;12.70;71.90;;;;;;4954622;29;19997;-49
2022/03/14 01:12:32;;;;;;;;;;;12.60;73.30;;;;;;4954912;28;20453;-49
2022/03/14 01:14:59;;;;;;;;;;;12.60;72.50;;;;;;4954353;28;19934;-48
2022/03/14 01:17:25;;;;;;;;;;;12.60;74.10;;;;;;4954678;29;19926;-49
2022/03/14 01:19:53;;;;;;;;;;;12.60;74.70;;;;;;4954517;29;19927;-49
2022/03/14 01:22:20;;;;;;;;;;;12.70;76.70;;;;;;4954644;29;19934;-49
2022/03/14 01:24:46;;;;;;;;;;;12.40;76.90;;;;;;4954318;28;19933;-49
2022/03/14 01:27:13;;;;;;;;;;;12.50;77.90;;;;;;4953892;29;19931;-50
2022/03/14 01:29:42;;;;;;;;;;;12.20;77.30;;;;;;4954731;28;19927;-49
2022/03/14 01:32:10;;;;;;;;;;;12.10;78.80;;;;;;4954358;29;19926;-49
2022/03/14 01:34:36;;;;;;;;;;;12.10;80.20;;;;;;4954353;29;19965;-48
2022/03/14 01:37:04;;;;;;;;;;;12.20;81.50;;;;;;4952034;28;19927;-50
2022/03/14 01:39:31;;;;;;;;;;;12.20;80.00;;;;;;4960607;28;19926;-49
2022/03/14 01:41:57;;;;;;;;;;;12.20;81.50;;;;;;4954205;28;19974;-49
2022/03/14 01:44:24;;;;;;;;;;;12.00;83.90;;;;;;4953840;29;19989;-49
2022/03/14 01:46:53;;;;;;;;;;;12.00;84.00;;;;;;4953858;29;19931;-49
2022/03/14 01:49:19;;;;;;;;;;;11.90;84.10;;;;;;4954269;28;20017;-50
2022/03/14 01:51:46;;;;;;;;;;;11.90;83.70;;;;;;4954390;29;20001;-49
2022/03/14 01:54:13;;;;;;;;;;;11.60;85.20;;;;;;4953949;29;19959;-49
2022/03/14 01:56:40;;;;;;;;;;;11.50;85.90;;;;;;4954299;29;19981;-49
2022/03/14 01:59:07;;;;;;;;;;;11.60;87.10;;;;;;4954322;29;19931;-50
2022/03/14 02:01:34;;;;;;;;;;;11.70;86.50;;;;;;4953684;28;19930;-50
2022/03/14 02:04:03;;;;;;;;;;;11.60;88.80;;;;;;4953807;29;19926;-50
2022/03/14 02:06:29;;;;;;;;;;;11.80;87.50;;;;;;4953950;29;19969;-49
2022/03/14 02:08:56;;;;;;;;;;;11.90;88.30;;;;;;4953834;29;20394;-49
2022/03/14 02:11:23;;;;;;;;;;;11.80;88.00;;;;;;4954126;29;19977;-50
2022/03/14 02:13:50;;;;;;;;;;;12.20;89.20;;;;;;4953138;29;20306;-49
2022/03/14 02:16:17;;;;;;;;;;;12.20;87.60;;;;;;4953835;29;19927;-50
2022/03/14 02:18:44;;;;;;;;;;;11.90;88.20;;;;;;4953800;29;19926;-50
2022/03/14 02:21:13;;;;;;;;;;;11.90;88.60;;;;;;4953995;29;19978;-49
2022/03/14 02:23:40;;;;;;;;;;;11.90;90.60;;;;;;4953880;29;19981;-49
2022/03/14 02:26:06;;;;;;;;;;;12.00;90.80;;;;;;4953526;29;19930;-50
2022/03/14 02:28:37;;;;;;;;;;;12.00;91.00;;;;;;4953720;29;19982;-49
2022/03/14 02:31:04;;;;;;;;;;;11.70;91.10;;;;;;4954252;29;19974;-50
2022/03/14 02:33:32;;;;;;;;;;;11.80;92.00;;;;;;4953401;29;19927;-49
2022/03/14 02:35:59;;;;;;;;;;;11.80;91.50;;;;;;4952560;28;19932;-49
2022/03/14 02:38:27;;;;;;;;;;;11.50;92.40;;;;;;4953067;29;20014;-49
2022/03/14 02:40:54;;;;;;;;;;;11.80;93.10;;;;;;4953091;29;19927;-49
2022/03/14 02:43:24;;;;;;;;;;;11.80;93.10;;;;;;4953277;29;19930;-51
2022/03/14 02:45:51;;;;;;;;;;;11.80;92.60;;;;;;4953149;29;19926;-49
2022/03/14 02:48:18;;;;;;;;;;;11.60;93.00;;;;;;4953164;28;20386;-49
2022/03/14 02:50:48;;;;;;;;;;;11.60;92.70;;;;;;4953028;29;19989;-50
2022/03/14 02:53:15;;;;;;;;;;;11.60;93.00;;;;;;4953332;28;19978;-50
2022/03/14 02:55:44;;;;;;;;;;;11.50;93.50;;;;;;4953023;29;19927;-49
2022/03/14 02:58:11;;;;;;;;;;;11.40;94.30;;;;;;4953528;29;19926;-49
2022/03/14 03:00:37;;;;;;;;;;;11.50;94.00;;;;;;4953272;29;19926;-49
2022/03/14 03:03:05;;;;;;;;;;;11.50;94.00;;;;;;4952689;29;19926;-49
2022/03/14 03:05:31;;;;;;;;;;;11.30;94.00;;;;;;4952846;28;19926;-49
2022/03/14 03:08:01;;;;;;;;;;;11.40;94.40;;;;;;4953162;29;20068;-50
2022/03/14 03:10:28;;;;;;;;;;;11.70;94.30;;;;;;4952870;29;20013;-50
2022/03/14 03:12:56;;;;;;;;;;;11.50;94.50;;;;;;4954566;28;19930;-50
2022/03/14 03:15:25;;;;;;;;;;;11.40;94.90;;;;;;4956666;29;20327;-50
2022/03/14 03:17:51;;;;;;;;;;;11.20;95.50;;;;;;4956805;29;19937;-50
2022/03/14 03:20:18;;;;;;;;;;;11.20;95.80;;;;;;4956839;29;19930;-50
2022/03/14 03:22:45;;;;;;;;;;;11.00;95.80;;;;;;4956572;28;19927;-50
2022/03/14 03:25:12;;;;;;;;;;;11.20;95.90;;;;;;4956330;29;19926;-50
2022/03/14 03:27:39;;;;;;;;;;;11.30;96.10;;;;;;4955992;29;20017;-49
2022/03/14 03:30:08;;;;;;;;;;;11.40;96.30;;;;;;4956451;29;19926;-50
2022/03/14 03:32:35;;;;;;;;;;;11.60;96.40;;;;;;4956686;29;19926;-50
2022/03/14 03:35:01;;;;;;;;;;;11.60;96.40;;;;;;4955806;28;19927;-50
2022/03/14 03:37:28;;;;;;;;;;;11.40;96.90;;;;;;4955939;28;20394;-49
2022/03/14 03:39:55;;;;;;;;;;;11.10;97.50;;;;;;4955556;29;19927;-51
2022/03/14 03:42:22;;;;;;;;;;;10.90;98.00;;;;;;4959059;28;19926;-50
2022/03/14 03:44:48;;;;;;;;;;;10.60;98.50;;;;;;4955204;28;19927;-50
2022/03/14 03:47:16;;;;;;;;;;;10.70;99.30;;;;;;4955724;29;19930;-50
2022/03/14 03:49:43;;;;;;;;;;;11.00;99.20;;;;;;4955486;28;19926;-51
2022/03/14 03:52:10;;;;;;;;;;;11.20;99.20;;;;;;4955715;29;19930;-50
2022/03/14 03:54:37;;;;;;;;;;;10.50;99.40;;;;;;4955311;28;19974;-50
2022/03/14 03:57:04;;;;;;;;;;;10.60;99.90;;;;;;4956020;28;19934;-51
2022/03/14 03:59:30;;;;;;;;;;;10.70;99.80;;;;;;4955483;28;19926;-50
2022/03/14 04:01:57;;;;;;;;;;;10.60;99.90;;;;;;4955836;28;19985;-50
2022/03/14 04:04:26;;;;;;;;;;;10.50;99.90;;;;;;4955470;29;19926;-50
2022/03/14 04:06:56;;;;;;;;;;;10.50;99.90;;;;;;4955633;28;20009;-51
2022/03/14 04:09:23;;;;;;;;;;;10.30;99.90;;;;;;4955090;29;19933;-50
2022/03/14 04:11:51;;;;;;;;;;;10.00;99.90;;;;;;4955478;29;19926;-50
2022/03/14 04:14:21;;;;;;;;;;;9.90;99.90;;;;;;4954850;28;19937;-50
2022/03/14 04:16:48;;;;;;;;;;;9.90;99.90;;;;;;4955108;29;19930;-50
2022/03/14 04:19:16;;;;;;;;;;;9.70;99.90;;;;;;4955137;29;19931;-50
2022/03/14 04:21:49;;;;;;;;;;;9.50;99.90;;;;;;4955247;28;19933;-50
2022/03/14 04:24:16;;;;;;;;;;;10.20;99.90;;;;;;4953688;28;19990;-51
2022/03/14 04:26:43;;;;;;;;;;;10.20;99.90;;;;;;4955127;29;19949;-50
2022/03/14 04:29:10;;;;;;;;;;;10.40;99.90;;;;;;4954667;28;20370;-50
2022/03/14 04:31:37;;;;;;;;;;;7.80;99.90;;;;;;4955047;29;20406;-50
2022/03/14 04:34:04;;;;;;;;;;;10.60;99.90;;;;;;4954266;29;19927;-50
2022/03/14 04:36:31;;;;;;;;;;;10.50;99.90;;;;;;4953073;28;19933;-50
2022/03/14 04:38:59;;;;;;;;;;;11.10;99.90;;;;;;4954846;28;19961;-50
2022/03/14 04:41:26;;;;;;;;;;;11.10;99.90;;;;;;4954648;29;19935;-50
2022/03/14 04:43:53;;;;;;;;;;;11.00;99.90;;;;;;4954547;28;19982;-50
2022/03/14 04:46:19;;;;;;;;;;;10.80;99.90;;;;;;4954882;28;19927;-50
2022/03/14 04:48:46;;;;;;;;;;;10.50;99.90;;;;;;4953280;28;19926;-50
2022/03/14 04:51:13;;;;;;;;;;;10.80;99.90;;;;;;4953516;29;20055;-49
2022/03/14 04:53:39;;;;;;;;;;;10.90;99.90;;;;;;4954532;28;19989;-49
2022/03/14 04:56:08;;;;;;;;;;;10.70;99.90;;;;;;4954745;29;20457;-49
2022/03/14 04:58:34;;;;;;;;;;;10.90;99.90;;;;;;4955001;29;19926;-49
2022/03/14 05:01:01;;;;;;;;;;;11.00;99.90;;;;;;4954056;29;19982;-50
2022/03/14 05:03:28;;;;;;;;;;;10.70;99.90;;;;;;4954702;29;20054;-50
2022/03/14 05:05:55;;;;;;;;;;;10.50;99.90;;;;;;4975565;23;19927;-55
2022/03/14 05:08:21;;;;;;;;;;;10.60;99.90;;;;;;4953436;28;19930;-56
2022/03/14 05:10:50;;;;;;;;;;;9.90;99.90;;;;;;4951335;28;20029;-56
2022/03/14 05:13:19;;;;;;;;;;;9.50;99.90;;;;;;4954480;29;19997;-56
2022/03/14 05:15:45;;;;;;;;;;;9.70;99.90;;;;;;4954352;29;19969;-56
2022/03/14 05:18:12;;;;;;;;;;;9.80;99.90;;;;;;4953231;28;20383;-56
2022/03/14 05:20:41;;;;;;;;;;;10.60;99.90;;;;;;4953843;29;20788;-56
2022/03/14 05:23:08;;;;;;;;;;;10.50;99.90;;;;;;4950134;29;19974;-55
2022/03/14 05:25:35;;;;;;;;;;;10.20;99.90;;;;;;4954003;29;20302;-56
2022/03/14 05:28:02;;;;;;;;;;;10.70;99.90;;;;;;4954337;29;20326;-56
2022/03/14 05:30:30;;;;;;;;;;;10.30;99.90;;;;;;4954270;29;19993;-56
2022/03/14 05:32:57;;;;;;;;;;;10.10;99.90;;;;;;4954438;29;19950;-56
2022/03/14 05:35:24;;;;;;;;;;;10.10;99.90;;;;;;4953800;28;19930;-56
2022/03/14 05:37:50;;;;;;;;;;;10.20;99.90;;;;;;4954138;28;19973;-56
2022/03/14 05:40:20;;;;;;;;;;;10.10;99.90;;;;;;4954221;28;19927;-56
2022/03/14 05:42:47;;;;;;;;;;;9.90;99.90;;;;;;4953892;28;19933;-56
2022/03/14 05:45:14;;;;;;;;;;;9.70;99.90;;;;;;4953167;29;19926;-56
2022/03/14 05:47:42;;;;;;;;;;;9.60;99.90;;;;;;4953727;29;20395;-56
2022/03/14 05:50:09;;;;;;;;;;;9.30;99.90;;;;;;4953365;29;19993;-56
2022/03/14 05:52:36;;;;;;;;;;;9.60;99.90;;;;;;4953522;29;19926;-56
2022/03/14 05:55:03;;;;;;;;;;;9.60;99.90;;;;;;4952964;28;19930;-56
2022/03/14 05:57:30;;;;;;;;;;;9.80;99.90;;;;;;4952022;28;19927;-55
2022/03/14 05:59:57;;;;;;;;;;;9.70;99.90;;;;;;4953456;29;19969;-56
2022/03/14 06:02:24;;;;;;;;;;;9.60;99.90;;;;;;4953728;29;19930;-56
2022/03/14 06:04:53;;;;;;;;;;;9.60;99.90;;;;;;4950469;28;19981;-55
2022/03/14 06:07:21;;;;;;;;;;;9.80;99.90;;;;;;4952314;28;19926;-57
2022/03/14 06:09:48;;;;;;;;;;;9.70;99.90;;;;;;4952296;29;19935;-55
2022/03/14 06:12:23;;;;;;;;;;;9.70;99.90;;;;;;4953267;29;19927;-55
2022/03/14 06:14:51;;;;;;;;;;;9.60;99.90;;;;;;4953229;28;19930;-55
2022/03/14 06:17:19;;;;;;;;;;;9.60;99.90;;;;;;4950880;28;20016;-55
2022/03/14 06:19:45;;;;;;;;;;;9.40;99.90;;;;;;4951762;29;19926;-56
2022/03/14 06:22:14;;;;;;;;;;;9.50;99.90;;;;;;4952729;29;19926;-55
2022/03/14 06:24:41;;;;;;;;;;;9.90;99.90;;;;;;4952126;29;20354;-55
2022/03/14 06:27:08;;;;;;;;;;;10.00;99.90;;;;;;4952309;29;19973;-55
2022/03/14 06:29:35;;;;;;;;;;;10.00;99.90;;;;;;4950794;28;19927;-56
2022/03/14 06:32:02;;;;;;;;;;;10.60;99.90;;;;;;4952119;29;19927;-56
2022/03/14 06:34:30;;;;;;;;;;;12.70;99.90;;;;;;4952349;28;20378;-56
2022/03/14 06:36:56;;;;;;;;;;;15.50;99.90;;;;;;4949587;29;20009;-56
2022/03/14 06:39:25;;;;;;;;;;;16.80;99.60;;;;;;4953249;28;19958;-56
2022/03/14 06:41:51;;;;;;;;;;;18.10;96.60;;;;;;4952192;29;19927;-56
2022/03/14 06:44:19;;;;;;;;;;;18.80;94.30;;;;;;4950722;29;20399;-56
2022/03/14 06:46:46;;;;;;;;;;;19.70;91.30;;;;;;4951712;28;19927;-56
2022/03/14 06:49:16;;;;;;;;;;;18.50;92.30;;;;;;4951727;29;19927;-57
2022/03/14 06:51:43;;;;;;;;;;;18.00;92.30;;;;;;4955828;28;19927;-57
2022/03/14 06:54:11;;;;;;;;;;;17.10;93.50;;;;;;4955222;28;19977;-57
2022/03/14 06:56:41;;;;;;;;;;;17.70;93.50;;;;;;4956010;29;19926;-57
2022/03/14 06:59:08;;;;;;;;;;;18.40;92.90;;;;;;4955842;28;20466;-57
2022/03/14 07:01:35;;;;;;;;;;;18.90;91.90;;;;;;4954780;29;19935;-57
2022/03/14 07:04:02;;;;;;;;;;;19.30;91.50;;;;;;4955118;28;20009;-57
2022/03/14 07:06:29;;;;;;;;;;;19.40;90.80;;;;;;4954369;29;19930;-57
2022/03/14 07:08:56;;;;;;;;;;;18.90;91.10;;;;;;4955065;29;19973;-57
2022/03/14 07:11:22;;;;;;;;;;;19.10;91.00;;;;;;4954445;28;19927;-57
2022/03/14 07:13:51;;;;;;;;;;;19.60;90.60;;;;;;4953775;28;19927;-57
2022/03/14 07:16:18;;;;;;;;;;;19.90;90.40;;;;;;4962719;28;19926;-57
2022/03/14 07:18:46;;;;;;;;;;;20.20;90.20;;;;;;4955108;29;19927;-56
2022/03/14 07:21:13;;;;;;;;;;;19.00;91.30;;;;;;4955496;28;19934;-57
2022/03/14 07:23:40;;;;;;;;;;;18.20;92.00;;;;;;4954414;28;19980;-57
2022/03/14 07:26:07;;;;;;;;;;;18.90;91.80;;;;;;4956209;28;19937;-57
2022/03/14 07:28:34;;;;;;;;;;;18.80;91.80;;;;;;4955174;29;19957;-57
2022/03/14 07:31:02;;;;;;;;;;;17.90;92.90;;;;;;4954758;28;20336;-57
2022/03/14 07:33:29;;;;;;;;;;;17.40;93.10;;;;;;4954404;29;19931;-57
2022/03/14 07:35:56;;;;;;;;;;;17.20;93.70;;;;;;4953793;28;20343;-57
2022/03/14 07:38:22;;;;;;;;;;;17.50;93.80;;;;;;4955449;28;19926;-57
2022/03/14 07:40:49;;;;;;;;;;;17.10;93.80;;;;;;4955758;29;19927;-57
2022/03/14 07:43:16;;;;;;;;;;;17.10;93.70;;;;;;4963754;28;19957;-57
2022/03/14 07:45:43;;;;;;;;;;;17.10;93.80;;;;;;4954846;29;19926;-57
2022/03/14 07:48:11;;;;;;;;;;;17.40;93.70;;;;;;4963658;28;19985;-57
2022/03/14 07:50:38;;;;;;;;;;;18.30;93.00;;;;;;4955154;29;19926;-57
2022/03/14 07:53:04;;;;;;;;;;;19.50;91.50;;;;;;4955790;29;20322;-57
2022/03/14 07:55:31;;;;;;;;;;;19.50;90.10;;;;;;4955450;29;19926;-57
2022/03/14 07:57:58;;;;;;;;;;;19.20;90.30;;;;;;4954692;28;19926;-57
2022/03/14 08:00:25;;;;;;;;;;;19.20;90.50;;;;;;4959389;28;20025;-58
2022/03/14 08:02:52;;;;;;;;;;;18.70;90.70;;;;;;4953528;28;19934;-57
2022/03/14 08:05:24;;;;;;;;;;;20.50;87.40;;;;;;4955133;28;20291;-57
2022/03/14 08:07:51;;;;;;;;;;;20.70;88.00;;;;;;4956554;28;19926;-57
2022/03/14 08:10:18;;;;;;;;;;;21.20;85.90;;;;;;4954660;29;20457;-58
2022/03/14 08:12:49;;;;;;;;;;;22.20;83.30;;;;;;4954985;29;19942;-57
2022/03/14 08:15:22;;;;;;;;;;;21.80;83.40;;;;;;4954842;29;19926;-57
2022/03/14 08:17:49;;;;;;;;;;;21.80;80.90;;;;;;4956886;28;19930;-57
2022/03/14 08:20:16;;;;;;;;;;;21.70;84.80;;;;;;4956196;28;20437;-57
2022/03/14 08:22:45;;;;;;;;;;;22.00;82.90;;;;;;4954058;29;19993;-57
2022/03/14 08:25:13;;;;;;;;;;;20.90;83.90;;;;;;4954013;28;20013;-57
2022/03/14 08:27:40;;;;;;;;;;;20.80;84.30;;;;;;4956209;28;19945;-57
2022/03/14 08:30:07;;;;;;;;;;;20.50;84.50;;;;;;4950874;28;20457;-57
2022/03/14 08:32:34;;;;;;;;;;;20.90;84.30;;;;;;4952452;28;19927;-57
2022/03/14 08:35:06;;;;;;;;;;;21.00;84.70;;;;;;4954627;28;19927;-57
2022/03/14 08:37:33;;;;;;;;;;;20.90;82.00;;;;;;4956605;28;19926;-57
2022/03/14 08:40:01;;;;;;;;;;;20.90;84.40;;;;;;4956929;28;19930;-57
2022/03/14 08:42:28;;;;;;;;;;;21.50;82.80;;;;;;4952959;29;19985;-57
2022/03/14 08:44:55;;;;;;;;;;;22.10;81.30;;;;;;4952273;29;19930;-57
2022/03/14 08:47:22;;;;;;;;;;;21.50;81.60;;;;;;4951046;29;19927;-57
2022/03/14 08:49:48;;;;;;;;;;;20.50;84.20;;;;;;4953105;29;19945;-57
2022/03/14 08:52:15;;;;;;;;;;;22.60;81.10;;;;;;4951702;29;19930;-57
2022/03/14 08:54:43;;;;;;;;;;;24.40;77.40;;;;;;4953180;28;19927;-57
2022/03/14 08:57:11;;;;;;;;;;;24.70;73.90;;;;;;4952388;29;19927;-58
2022/03/14 08:59:38;;;;;;;;;;;25.00;73.70;;;;;;4954486;29;20345;-58
2022/03/14 09:02:07;;;;;;;;;;;23.50;76.20;;;;;;4954863;29;19977;-58
2022/03/14 09:04:36;;;;;;;;;;;23.50;76.00;;;;;;4953451;29;19962;-57
2022/03/14 09:07:03;;;;;;;;;;;24.90;72.70;;;;;;4954332;29;20086;-57
2022/03/14 09:09:30;;;;;;;;;;;25.90;72.00;;;;;;4954044;28;20445;-58
2022/03/14 09:11:58;;;;;;;;;;;26.20;70.60;;;;;;4953768;29;19926;-57
2022/03/14 09:14:26;;;;;;;;;;;28.20;65.60;;;;;;4952269;29;19926;-57
2022/03/14 09:16:52;;;;;;;;;;;28.20;65.20;;;;;;4953329;29;19990;-57
2022/03/14 09:19:19;;;;;;;;;;;27.40;65.80;;;;;;4953383;29;19930;-56
2022/03/14 09:21:46;;;;;;;;;;;27.00;66.30;;;;;;4954193;29;19934;-57
2022/03/14 09:24:13;;;;;;;;;;;27.60;65.00;;;;;;4953737;29;19927;-59
2022/03/14 09:26:39;;;;;;;;;;;27.00;64.40;;;;;;4952859;29;19926;-57
2022/03/14 09:29:08;;;;;;;;;;;25.80;67.10;;;;;;4953939;29;19958;-58
2022/03/14 09:31:36;;;;;;;;;;;24.80;69.50;;;;;;4953264;29;19933;-59
2022/03/14 09:34:02;;;;;;;;;;;23.70;71.00;;;;;;4952704;29;19934;-57
2022/03/14 09:36:29;;;;;;;;;;;26.00;67.60;;;;;;4952706;29;20272;-58
2022/03/14 09:38:56;;;;;;;;;;;26.00;67.20;;;;;;4953890;28;19994;-58
2022/03/14 09:41:25;;;;;;;;;;;25.80;67.70;;;;;;4953493;28;19926;-59
2022/03/14 09:43:53;;;;;;;;;;;26.50;67.50;;;;;;4953269;29;19926;-57
2022/03/14 09:46:21;;;;;;;;;;;27.90;64.10;;;;;;4952575;29;20021;-57
2022/03/14 09:48:50;;;;;;;;;;;27.20;66.00;;;;;;4951247;28;19981;-57
2022/03/14 09:51:17;;;;;;;;;;;27.30;66.70;;;;;;4948290;29;19926;-58
2022/03/14 09:53:45;;;;;;;;;;;26.50;67.30;;;;;;4952917;28;20346;-57
2022/03/14 09:56:11;;;;;;;;;;;27.70;63.40;;;;;;4952446;28;19926;-57
2022/03/14 09:58:39;;;;;;;;;;;28.10;63.50;;;;;;4951324;29;20410;-58
2022/03/14 10:01:05;;;;;;;;;;;28.20;62.70;;;;;;4952154;29;20017;-57
2022/03/14 10:03:32;;;;;;;;;;;27.60;63.00;;;;;;4952888;29;20346;-57
2022/03/14 10:06:00;;;;;;;;;;;27.40;62.80;;;;;;4951561;28;19964;-57
2022/03/14 10:08:27;;;;;;;;;;;27.20;63.30;;;;;;4952761;29;19990;-57
2022/03/14 10:10:54;;;;;;;;;;;25.50;66.20;;;;;;4953044;29;19926;-57
2022/03/14 10:13:20;;;;;;;;;;;25.60;67.80;;;;;;4953325;29;19973;-57
2022/03/14 10:15:48;;;;;;;;;;;25.60;66.60;;;;;;4952844;29;19981;-58
2022/03/14 10:18:15;;;;;;;;;;;25.40;67.20;;;;;;4953625;29;19927;-56
2022/03/14 10:20:54;;;;;;;;;;;25.50;69.20;;;;;;4953650;29;20353;-57
2022/03/14 10:23:30;;;;;;;;;;;23.90;70.30;;;;;;4953356;29;19926;-56
2022/03/14 10:25:58;;;;;;;;;;;22.70;72.50;;;;;;4943080;28;20436;-58
2022/03/14 10:28:28;;;;;;;;;;;23.10;72.00;;;;;;4934146;29;19937;-58
2022/03/14 10:30:54;;;;;;;;;;;23.20;73.60;;;;;;4934185;29;19931;-58
2022/03/14 10:33:23;;;;;;;;;;;23.80;72.80;;;;;;4934059;29;19926;-58
2022/03/14 10:35:55;;;;;;;;;;;25.50;68.90;;;;;;4943000;29;19926;-58
2022/03/14 10:38:22;;;;;;;;;;;25.40;67.20;;;;;;4953348;29;19926;-57
2022/03/14 10:40:50;;;;;;;;;;;25.60;68.00;;;;;;4953266;29;19930;-58
2022/03/14 10:43:24;;;;;;;;;;;25.40;66.60;;;;;;4952871;29;19926;-58
2022/03/14 10:45:52;;;;;;;;;;;26.20;64.90;;;;;;4953115;29;19926;-58
2022/03/14 10:48:31;;;;;;;;;;;26.00;66.50;;;;;;4953064;29;20394;-58
2022/03/14 10:51:02;;;;;;;;;;;25.60;65.80;;;;;;4953064;29;19998;-58
2022/03/14 10:53:28;;;;;;;;;;;25.60;65.70;;;;;;4956376;28;19942;-56
2022/03/14 10:55:59;;;;;;;;;;;25.60;67.10;;;;;;4953188;28;19934;-58
2022/03/14 10:58:29;;;;;;;;;;;25.00;69.40;;;;;;4962919;28;19937;-56
2022/03/14 11:00:56;;;;;;;;;;;22.20;72.60;;;;;;4968261;28;20457;-57
2022/03/14 11:03:23;;;;;;;;;;;21.00;75.90;;;;;;4948155;29;19926;-58
2022/03/14 11:05:50;;;;;;;;;;;19.60;80.60;;;;;;4934874;29;20295;-56
2022/03/14 11:08:27;;;;;;;;;;;19.50;82.10;;;;;;4953237;29;19974;-57
2022/03/14 11:10:54;;;;;;;;;;;18.70;79.60;;;;;;4952653;29;19926;-56
2022/03/14 11:13:22;;;;;;;;;;;18.40;84.10;;;;;;4948436;29;19926;-56
2022/03/14 11:15:49;;;;;;;;;;;17.60;85.00;;;;;;4946031;29;19930;-57
2022/03/14 11:18:16;;;;;;;;;;;17.40;85.30;;;;;;4952617;29;19932;-56
2022/03/14 11:20:43;;;;;;;;;;;17.40;86.40;;;;;;4945154;28;19934;-56
2022/03/14 11:23:10;;;;;;;;;;;17.20;86.00;;;;;;4956647;28;19933;-56
2022/03/14 11:25:38;;;;;;;;;;;16.90;89.00;;;;;;4933757;29;19927;-56
2022/03/14 11:28:05;;;;;;;;;;;16.90;89.10;;;;;;4950981;29;20664;-56
2022/03/14 11:30:36;;;;;;;;;;;16.60;89.70;;;;;;4952588;28;19931;-56
2022/03/14 11:33:03;;;;;;;;;;;16.10;90.80;;;;;;4941128;28;19931;-55
2022/03/14 11:35:30;;;;;;;;;;;16.50;89.10;;;;;;4937081;29;19982;-56
2022/03/14 11:37:57;;;;;;;;;;;16.50;90.00;;;;;;4955404;28;19930;-56
2022/03/14 11:40:24;;;;;;;;;;;16.30;90.10;;;;;;4956416;29;19927;-56
2022/03/14 11:42:51;;;;;;;;;;;15.80;91.00;;;;;;4953916;28;20013;-55
2022/03/14 11:45:17;;;;;;;;;;;15.50;91.20;;;;;;4950155;28;19990;-56
2022/03/14 11:47:47;;;;;;;;;;;15.40;91.50;;;;;;4956242;29;19931;-56
2022/03/14 11:50:15;;;;;;;;;;;15.70;91.40;;;;;;4955177;28;19926;-56
2022/03/14 11:52:42;;;;;;;;;;;15.70;91.80;;;;;;4956122;29;19926;-56
2022/03/14 11:55:16;;;;;;;;;;;15.20;91.80;;;;;;4955083;28;20362;-56
2022/03/14 11:57:43;;;;;;;;;;;15.20;91.50;;;;;;4954226;29;19978;-56
2022/03/14 12:00:32;;;;;;;;;;;15.30;91.40;;;;;;4952155;28;19927;-57
2022/03/14 12:03:01;;;;;;;;;;;15.20;89.50;;;;;;4947969;29;19965;-57
2022/03/14 12:05:42;;;;;;;;;;;15.60;91.90;;;;;;4955575;28;19931;-57
2022/03/14 12:08:30;;;;;;;;;;;15.30;92.10;;;;;;4955730;28;20355;-57
2022/03/14 12:11:17;;;;;;;;;;;14.70;92.70;;;;;;4953308;28;19930;-57
2022/03/14 12:13:43;;;;;;;;;;;15.00;93.00;;;;;;4950314;29;19973;-56
2022/03/14 12:16:11;;;;;;;;;;;;;;;;;;4936190;29;19927;-56
2022/03/14 12:18:39;;;;;;;;;;;;;;;;;;4954709;29;19927;-57
2022/03/14 12:21:27;;;;;;;;;;;15.10;93.00;;;;;;4954768;29;20398;-56
2022/03/14 12:23:54;;;;;;;;;;;15.20;91.90;;;;;;4954417;28;20409;-57
2022/03/14 12:26:21;;;;;;;;;;;;;;;;;;4954750;29;19931;-57
2022/03/14 12:28:48;;;;;;;;;;;15.70;92.50;;;;;;4955693;28;19933;-56
2022/03/14 12:31:16;;;;;;;;;;;16.00;91.70;;;;;;4954581;29;19926;-56
2022/03/14 12:33:43;;;;;;;;;;;15.80;92.10;;;;;;4950952;29;19994;-57
2022/03/14 12:36:28;;;;;;;;;;;15.60;92.90;;;;;;4936058;29;19931;-57
2022/03/14 12:39:16;;;;;;;;;;;15.30;92.50;;;;;;4935786;29;19927;-57
2022/03/14 12:41:46;;;;;;;;;;;15.00;92.30;;;;;;4939075;28;20361;-57
2022/03/14 12:44:16;;;;;;;;;;;15.30;92.20;;;;;;4955595;28;19926;-57
2022/03/14 12:46:43;;;;;;;;;;;15.20;92.10;;;;;;4935032;29;19986;-57
2022/03/14 12:49:10;;;;;;;;;;;15.40;92.80;;;;;;4935757;29;20339;-57
2022/03/14 12:51:39;;;;;;;;;;;16.10;92.50;;;;;;4935555;29;20355;-57
2022/03/14 12:54:06;;;;;;;;;;;16.10;92.30;;;;;;4935732;29;19927;-57
2022/03/14 12:56:37;;;;;;;;;;;15.90;92.00;;;;;;4935564;29;19927;-57
2022/03/14 12:59:10;;;;;;;;;;;15.00;93.20;;;;;;4935654;29;19974;-57
2022/03/14 13:01:37;;;;;;;;;;;14.60;93.90;;;;;;4935730;29;20462;-57
2022/03/14 13:04:06;;;;;;;;;;;;;;;;;;4941086;29;19926;-57
2022/03/14 13:06:33;;;;;;;;;;;;;;;;;;4954668;29;19973;-57
2022/03/14 13:09:00;;;;;;;;;;;15.00;93.80;;;;;;4954513;29;19931;-57
2022/03/14 13:11:34;;;;;;;;;;;15.60;94.10;;;;;;4954422;29;20276;-57
2022/03/14 13:14:18;;;;;;;;;;;15.90;92.90;;;;;;4949114;29;19927;-58
2022/03/14 13:16:52;;;;;;;;;;;15.80;93.30;;;;;;4935817;29;19926;-56
2022/03/14 13:19:20;;;;;;;;;;;15.70;92.80;;;;;;4936011;29;20001;-57
2022/03/14 13:21:47;;;;;;;;;;;16.00;92.40;;;;;;4935242;29;19931;-57
2022/03/14 13:24:14;;;;;;;;;;;;;;;;;;4941273;29;19965;-57
2022/03/14 13:26:43;;;;;;;;;;;15.10;94.00;;;;;;4954314;29;19926;-57
2022/03/14 13:29:10;;;;;;;;;;;14.80;94.30;;;;;;4954353;29;19927;-57
2022/03/14 13:31:38;;;;;;;;;;;14.90;94.10;;;;;;4953942;29;20028;-57
2022/03/14 13:34:05;;;;;;;;;;;;;;;;;;4949518;29;20314;-56
2022/03/14 13:36:38;;;;;;;;;;;15.80;92.60;;;;;;4947706;29;19935;-57
2022/03/14 13:39:05;;;;;;;;;;;;;;;;;;4954150;28;19933;-58
2022/03/14 13:41:31;;;;;;;;;;;15.60;93.30;;;;;;4954060;29;19926;-57
2022/03/14 13:43:59;;;;;;;;;;;15.20;93.50;;;;;;4951385;29;20383;-57
2022/03/14 13:46:29;;;;;;;;;;;15.10;93.10;;;;;;4953001;29;19933;-57
2022/03/14 13:48:56;;;;;;;;;;;;;;;;;;4954113;29;20013;-57
2022/03/14 13:51:25;;;;;;;;;;;15.40;93.30;;;;;;4953762;29;19931;-58
2022/03/14 13:53:53;;;;;;;;;;;15.40;93.70;;;;;;4950235;29;19947;-57
2022/03/14 13:56:20;;;;;;;;;;;15.20;92.40;;;;;;4952116;28;19982;-57
2022/03/14 13:58:51;;;;;;;;;;;15.40;91.80;;;;;;4953528;29;19927;-57
2022/03/14 14:01:18;;;;;;;;;;;15.50;91.00;;;;;;4951577;28;20274;-57
2022/03/14 14:03:45;;;;;;;;;;;15.70;92.20;;;;;;4952777;29;19927;-57
2022/03/14 14:06:15;;;;;;;;;;;15.50;92.70;;;;;;4953313;29;19985;-57
2022/03/14 14:08:42;;;;;;;;;;;15.60;93.00;;;;;;4942117;29;19950;-58
2022/03/14 14:11:23;;;;;;;;;;;15.40;92.70;;;;;;4953412;29;20046;-57
2022/03/14 14:13:50;;;;;;;;;;;15.50;93.00;;;;;;4952618;29;20025;-57
2022/03/14 14:16:18;;;;;;;;;;;15.40;92.70;;;;;;4951031;28;19981;-58
2022/03/14 14:18:45;;;;;;;;;;;15.40;93.00;;;;;;4953313;28;19926;-58
2022/03/14 14:21:23;;;;;;;;;;;15.80;92.70;;;;;;4952648;28;20387;-58
2022/03/14 14:23:53;;;;;;;;;;;16.20;91.50;;;;;;4952585;29;19926;-57
2022/03/14 14:26:31;;;;;;;;;;;15.90;91.70;;;;;;4952852;29;20013;-58